createdAt,value
2022-09-12T00:01:22.453Z,94915.22
2022-09-12T00:03:53.633Z,94915.91
2022-09-12T00:06:25.891Z,94918.75
2022-09-12T00:08:56.800Z,94901.28
2022-09-12T00:11:26.156Z,94903.50
2022-09-12T00:13:57.787Z,94892.19
2022-09-12T00:16:28.295Z,94898.78
2022-09-12T00:18:56.659Z,94901.94
2022-09-12T00:21:26.536Z,94905.13
2022-09-12T00:23:55.417Z,94916.66
2022-09-12T00:26:23.710Z,94909.25
2022-09-12T00:28:52.361Z,94899.91
2022-09-12T00:31:24.163Z,94905.72
2022-09-12T00:33:53.150Z,94889.59
2022-09-12T00:36:23.360Z,94892.91
2022-09-12T00:38:53.627Z,94899.06
2022-09-12T00:41:24.252Z,94894.47
2022-09-12T00:43:54.945Z,94889.25
2022-09-12T00:46:40.553Z,94888.34
2022-09-12T00:49:15.363Z,94892.13
2022-09-12T00:51:46.898Z,94891.88
2022-09-12T00:54:22.501Z,94884.94
2022-09-12T00:56:54.123Z,94841.59
2022-09-12T00:59:28.307Z,94897.84
2022-09-12T01:01:58.119Z,94901.00
2022-09-12T01:04:28.449Z,94893.03
2022-09-12T01:06:58.910Z,94810.09
2022-09-12T01:09:28.805Z,94882.63
2022-09-12T01:11:58.358Z,94878.91
2022-09-12T01:14:26.644Z,94873.28
2022-09-12T01:16:55.051Z,94870.34
2022-09-12T01:19:51.483Z,94875.44
2022-09-12T01:22:44.925Z,94873.16
2022-09-12T01:25:26.061Z,94876.69
2022-09-12T01:28:12.864Z,94868.72
2022-09-12T01:30:47.250Z,94870.94
2022-09-12T01:33:35.488Z,94871.84
2022-09-12T01:36:19.919Z,94881.00
2022-09-12T01:38:51.781Z,94882.75
2022-09-12T01:41:28.167Z,94871.78
2022-09-12T01:44:03.745Z,94886.63
2022-09-12T01:46:42.000Z,94894.72
2022-09-12T01:49:17.204Z,94901.41
2022-09-12T01:51:55.614Z,94887.91
2022-09-12T01:54:31.951Z,94829.47
2022-09-12T01:57:05.410Z,94881.75
2022-09-12T01:59:37.336Z,94887.13
2022-09-12T02:02:13.738Z,94883.75
2022-09-12T02:04:51.651Z,94876.81
2022-09-12T02:07:22.873Z,94888.03
2022-09-12T02:09:55.770Z,94894.09
2022-09-12T02:12:30.987Z,94896.69
2022-09-12T02:15:05.023Z,94886.75
2022-09-12T02:17:39.414Z,94889.66
2022-09-12T02:20:31.117Z,94882.44
2022-09-12T02:23:08.397Z,94890.94
2022-09-12T02:25:43.209Z,94887.59
2022-09-12T02:28:15.645Z,94887.94
2022-09-12T02:30:52.006Z,94887.81
2022-09-12T02:33:28.690Z,94878.56
2022-09-12T02:36:04.697Z,94882.47
2022-09-12T02:38:39.082Z,94885.97
2022-09-12T02:41:07.436Z,94888.34
2022-09-12T02:43:37.914Z,94879.78
2022-09-12T02:46:09.653Z,94884.00
2022-09-12T02:48:44.101Z,94885.94
2022-09-12T02:51:13.230Z,94883.63
2022-09-12T02:53:43.331Z,94887.03
2022-09-12T02:56:18.497Z,94889.25
2022-09-12T02:58:47.574Z,94891.53
2022-09-12T03:01:28.071Z,94888.50
2022-09-12T03:04:19.464Z,94882.97
2022-09-12T03:06:58.628Z,94886.50
2022-09-12T03:09:36.744Z,94891.25
2022-09-12T03:12:13.040Z,94894.13
2022-09-12T03:15:06.264Z,94898.88
2022-09-12T03:17:47.241Z,94892.28
2022-09-12T03:20:23.864Z,94897.31
2022-09-12T03:22:57.763Z,94894.25
2022-09-12T03:25:31.501Z,94895.16
2022-09-12T03:28:06.297Z,94895.09
2022-09-12T03:30:39.698Z,94899.66
2022-09-12T03:33:08.002Z,94905.97
2022-09-12T03:35:37.717Z,94903.13
2022-09-12T03:38:08.137Z,94905.03
2022-09-12T03:40:36.535Z,94893.69
2022-09-12T03:43:05.449Z,94896.88
2022-09-12T03:45:33.830Z,94899.47
2022-09-12T03:48:02.443Z,94896.78
2022-09-12T03:50:30.837Z,94902.19
2022-09-12T03:53:01.944Z,94901.34
2022-09-12T03:55:31.243Z,94903.69
2022-09-12T03:57:59.556Z,94908.50
2022-09-12T04:00:27.762Z,94859.84
2022-09-12T04:02:57.389Z,94901.47
2022-09-12T04:05:26.683Z,94903.81
2022-09-12T04:07:54.983Z,94911.09
2022-09-12T04:10:24.644Z,94907.91
2022-09-12T04:12:53.026Z,94913.34
2022-09-12T04:15:21.399Z,94915.88
2022-09-12T04:17:49.604Z,94923.16
2022-09-12T04:20:18.280Z,94929.22
2022-09-12T04:22:46.576Z,94939.84
2022-09-12T04:25:15.483Z,94896.91
2022-09-12T04:27:45.139Z,94937.72
2022-09-12T04:30:14.395Z,94952.28
2022-09-12T04:32:42.672Z,94948.97
2022-09-12T04:35:12.429Z,94966.25
2022-09-12T04:37:40.698Z,94961.84
2022-09-12T04:40:10.189Z,94961.34
2022-09-12T04:42:38.548Z,94964.66
2022-09-12T04:45:09.543Z,94969.91
2022-09-12T04:47:38.137Z,94971.81
2022-09-12T04:50:07.436Z,94974.69
2022-09-12T04:52:36.056Z,94979.94
2022-09-12T04:55:04.579Z,94983.56
2022-09-12T04:57:32.872Z,94984.84
2022-09-12T05:00:06.490Z,94959.41
2022-09-12T05:02:36.948Z,94983.25
2022-09-12T05:05:05.688Z,94981.22
2022-09-12T05:07:34.035Z,94987.84
2022-09-12T05:10:04.089Z,94992.19
2022-09-12T05:12:32.302Z,94990.00
2022-09-12T05:15:00.624Z,94990.31
2022-09-12T05:17:30.518Z,94997.38
2022-09-12T05:20:00.851Z,94996.72
2022-09-12T05:22:29.154Z,94994.59
2022-09-12T05:24:57.397Z,94988.28
2022-09-12T05:27:25.668Z,94985.84
2022-09-12T05:29:53.948Z,94989.75
2022-09-12T05:32:22.261Z,94993.25
2022-09-12T05:34:51.033Z,94989.53
2022-09-12T05:37:20.771Z,94981.47
2022-09-12T05:39:49.046Z,94979.31
2022-09-12T05:42:17.336Z,94983.19
2022-09-12T05:44:45.620Z,94981.38
2022-09-12T05:47:13.959Z,94982.34
2022-09-12T05:49:42.213Z,94985.44
2022-09-12T05:52:10.483Z,94983.75
2022-09-12T05:54:41.324Z,94987.00
2022-09-12T05:57:09.652Z,94977.56
2022-09-12T05:59:38.217Z,94978.09
2022-09-12T06:02:06.511Z,94976.34
2022-09-12T06:04:35.255Z,94972.78
2022-09-12T06:07:03.560Z,94970.88
2022-09-12T06:09:32.797Z,94975.00
2022-09-12T06:12:02.576Z,94971.53
2022-09-12T06:14:30.854Z,94974.84
2022-09-12T06:16:59.181Z,94970.56
2022-09-12T06:19:28.230Z,94971.31
2022-09-12T06:21:57.158Z,94974.75
2022-09-12T06:24:25.493Z,94971.72
2022-09-12T06:26:53.899Z,94968.81
2022-09-12T06:29:23.757Z,94969.47
2022-09-12T06:31:52.012Z,94883.13
2022-09-12T06:34:20.893Z,94926.94
2022-09-12T06:36:50.837Z,94954.53
2022-09-12T06:39:20.362Z,94949.31
2022-09-12T06:41:49.706Z,94954.19
2022-09-12T06:44:20.204Z,94963.88
2022-09-12T06:46:50.350Z,94943.25
2022-09-12T06:49:18.812Z,94962.50
2022-09-12T06:51:47.109Z,94962.78
2022-09-12T06:54:17.025Z,94959.41
2022-09-12T06:56:46.186Z,94909.63
2022-09-12T06:59:14.629Z,94960.66
2022-09-12T07:01:43.172Z,94964.25
2022-09-12T07:04:12.920Z,94941.50
2022-09-12T07:06:44.676Z,94971.13
2022-09-12T07:09:16.508Z,94956.91
2022-09-12T07:11:45.943Z,94959.88
2022-09-12T07:14:15.467Z,94960.66
2022-09-12T07:16:44.252Z,94962.81
2022-09-12T07:19:14.172Z,94928.63
2022-09-12T07:21:42.587Z,94961.88
2022-09-12T07:24:11.811Z,94955.81
2022-09-12T07:26:42.433Z,94955.25
2022-09-12T07:32:05.780Z,94957.03
2022-09-12T07:34:36.487Z,94958.09
2022-09-12T07:37:04.953Z,94951.22
2022-09-12T07:39:33.691Z,94951.88
2022-09-12T07:42:01.977Z,94963.66
2022-09-12T07:44:30.525Z,94956.94
2022-09-12T07:46:58.828Z,94952.13
2022-09-12T07:49:27.104Z,94957.34
2022-09-12T07:51:56.767Z,94960.81
2022-09-12T07:54:25.404Z,94957.41
2022-09-12T07:56:53.607Z,94953.53
2022-09-12T07:59:48.355Z,94944.97
2022-09-12T08:02:17.142Z,94951.22
2022-09-12T08:04:46.579Z,94950.47
2022-09-12T08:07:18.480Z,94941.50
2022-09-12T08:09:49.366Z,94944.22
2022-09-12T08:12:17.882Z,94933.28
2022-09-12T08:14:46.169Z,94948.13
2022-09-12T08:17:14.533Z,94943.72
2022-09-12T08:19:42.910Z,94952.97
2022-09-12T08:22:11.338Z,94944.75
2022-09-12T08:24:41.170Z,94943.06
2022-09-12T08:27:09.824Z,94941.91
2022-09-12T08:29:38.112Z,94940.03
2022-09-12T08:32:06.659Z,94938.75
2022-09-12T08:34:35.036Z,94940.97
2022-09-12T08:37:04.210Z,94940.28
2022-09-12T08:39:33.377Z,94943.03
2022-09-12T08:42:05.110Z,94927.44
2022-09-12T08:45:00.861Z,94931.72
2022-09-12T08:47:32.707Z,94923.31
2022-09-12T08:50:17.849Z,94921.53
2022-09-12T08:52:54.834Z,94913.22
2022-09-12T08:55:35.659Z,94918.03
2022-09-12T08:58:14.811Z,94909.69
2022-09-12T09:00:52.436Z,94910.22
2022-09-12T09:03:46.423Z,94912.59
2022-09-12T09:06:28.037Z,94911.56
2022-09-12T09:09:06.110Z,94908.63
2022-09-12T09:11:48.316Z,94900.88
2022-09-12T09:14:51.359Z,94909.00
2022-09-12T09:17:25.940Z,94901.06
2022-09-12T09:20:03.314Z,94900.06
2022-09-12T09:22:42.637Z,94893.13
2022-09-12T09:25:22.611Z,94891.34
2022-09-12T09:27:59.309Z,94894.13
2022-09-12T09:30:29.135Z,94878.28
2022-09-12T09:33:01.195Z,94874.22
2022-09-12T09:35:39.796Z,94879.47
2022-09-12T09:38:20.463Z,94875.50
2022-09-12T09:41:01.658Z,94880.84
2022-09-12T09:43:30.154Z,94871.13
2022-09-12T09:46:00.603Z,94867.25
2022-09-12T09:48:31.481Z,94861.97
2022-09-12T09:51:02.040Z,94858.25
2022-09-12T09:53:38.907Z,94864.22
2022-09-12T09:56:13.225Z,94867.06
2022-09-12T09:58:42.210Z,94870.22
2022-09-12T10:01:17.666Z,94864.06
2022-09-12T10:03:53.850Z,94851.78
2022-09-12T10:06:31.079Z,94869.72
2022-09-12T10:09:09.837Z,94864.94
2022-09-12T10:11:43.670Z,94858.56
2022-09-12T10:14:31.232Z,94853.16
2022-09-12T10:17:03.473Z,94839.47
2022-09-12T10:19:40.402Z,94847.47
2022-09-12T10:22:17.192Z,94844.00
2022-09-12T10:24:50.436Z,94845.16
2022-09-12T10:27:23.435Z,94846.09
2022-09-12T10:29:56.076Z,94847.72
2022-09-12T10:32:31.072Z,94844.38
2022-09-12T10:35:03.159Z,94837.38
2022-09-12T10:37:34.642Z,94843.41
2022-09-12T10:40:05.442Z,94835.41
2022-09-12T10:42:48.925Z,94840.47
2022-09-12T10:45:26.516Z,94811.97
2022-09-12T10:48:02.061Z,94840.31
2022-09-12T10:50:36.928Z,94833.75
2022-09-12T10:53:19.251Z,94837.78
2022-09-12T10:56:01.511Z,94834.97
2022-09-12T10:58:45.085Z,94824.78
2022-09-12T11:01:27.639Z,94831.53
2022-09-12T11:04:16.193Z,94834.25
2022-09-12T11:06:53.980Z,94837.28
2022-09-12T11:09:31.360Z,94830.09
2022-09-12T11:12:09.902Z,94824.69
2022-09-12T11:14:52.711Z,94825.75
2022-09-12T11:17:32.169Z,94824.59
2022-09-12T11:20:44.764Z,94818.41
2022-09-12T11:23:48.511Z,94817.66
2022-09-12T11:26:32.071Z,94811.72
2022-09-12T11:29:12.694Z,94812.00
2022-09-12T11:32:06.923Z,94811.69
2022-09-12T11:34:44.964Z,94808.88
2022-09-12T11:37:32.431Z,94807.59
2022-09-12T11:40:08.829Z,94814.94
2022-09-12T11:42:41.095Z,94798.53
2022-09-12T11:45:16.923Z,94773.56
2022-09-12T11:47:48.487Z,94805.41
2022-09-12T11:50:23.516Z,94799.06
2022-09-12T11:52:56.713Z,94798.56
2022-09-12T11:55:30.543Z,94794.00
2022-09-12T11:58:00.886Z,94792.75
2022-09-12T12:00:34.744Z,94733.56
2022-09-12T12:03:06.461Z,94785.88
2022-09-12T12:05:44.314Z,94788.16
2022-09-12T12:08:14.770Z,94790.47
2022-09-12T12:10:45.463Z,94789.94
2022-09-12T12:13:22.712Z,94798.47
2022-09-12T12:15:54.862Z,94791.22
2022-09-12T12:18:26.513Z,94791.00
2022-09-12T12:20:56.504Z,94790.19
2022-09-12T12:23:29.267Z,94784.81
2022-09-12T12:25:58.961Z,94786.25
2022-09-12T12:28:59.416Z,94786.78
2022-09-12T12:31:27.824Z,94784.72
2022-09-12T12:34:04.733Z,94783.28
2022-09-12T12:36:40.502Z,94786.56
2022-09-12T12:39:51.262Z,94781.75
2022-09-12T12:43:05.381Z,94786.94
2022-09-12T12:46:02.958Z,94777.53
2022-09-12T12:48:48.391Z,94773.38
2022-09-12T12:51:29.881Z,94780.81
2022-09-12T12:53:59.091Z,94781.00
2022-09-12T12:56:34.875Z,94777.00
2022-09-12T12:59:06.276Z,94772.81
2022-09-12T13:01:41.195Z,94777.47
2022-09-12T13:04:16.981Z,94779.59
2022-09-12T13:06:47.992Z,94772.59
2022-09-12T13:09:27.008Z,94777.56
2022-09-12T13:12:04.200Z,94775.31
2022-09-12T13:14:54.812Z,94770.94
2022-09-12T13:17:29.399Z,94761.59
2022-09-12T13:20:26.578Z,94782.09
2022-09-12T13:22:55.512Z,94783.91
2022-09-12T13:25:31.577Z,94772.88
2022-09-12T13:28:06.953Z,94767.75
2022-09-12T13:30:37.518Z,94768.78
2022-09-12T13:33:12.968Z,94764.84
2022-09-12T13:36:00.886Z,94771.59
2022-09-12T13:38:38.823Z,94765.19
2022-09-12T13:41:25.867Z,94775.06
2022-09-12T13:43:54.897Z,94770.56
2022-09-12T13:46:30.392Z,94778.59
2022-09-12T13:49:01.949Z,94782.59
2022-09-12T13:51:33.374Z,94772.03
2022-09-12T13:54:05.179Z,94779.25
2022-09-12T13:56:33.470Z,94775.94
2022-09-12T13:59:03.648Z,94769.38
2022-09-12T14:01:40.537Z,94781.19
2022-09-12T14:04:31.148Z,94777.00
2022-09-12T14:07:01.787Z,94781.50
2022-09-12T14:09:33.758Z,94786.88
2022-09-12T14:12:03.379Z,94783.56
2022-09-12T14:14:35.768Z,94778.50
2022-09-12T14:17:19.842Z,94778.91
2022-09-12T14:19:53.881Z,94782.34
2022-09-12T14:22:22.825Z,94783.16
2022-09-12T14:24:51.886Z,94782.34
2022-09-12T14:27:25.918Z,94734.88
2022-09-12T14:30:01.967Z,94786.66
2022-09-12T14:32:30.608Z,94788.97
2022-09-12T14:35:19.853Z,94737.84
2022-09-12T14:37:51.996Z,94789.16
2022-09-12T14:40:22.793Z,94808.50
2022-09-12T14:42:56.963Z,94796.72
2022-09-12T14:45:32.745Z,94798.25
2022-09-12T14:48:01.270Z,94801.00
2022-09-12T14:50:36.800Z,94778.16
2022-09-12T14:53:07.264Z,94792.63
2022-09-12T14:55:43.640Z,94796.56
2022-09-12T14:58:26.386Z,94751.41
2022-09-12T15:00:56.709Z,94792.75
2022-09-12T15:03:34.269Z,94714.91
2022-09-12T15:06:08.041Z,94798.13
2022-09-12T15:08:36.730Z,94797.34
2022-09-12T15:11:08.214Z,94798.38
2022-09-12T15:13:42.212Z,94801.50
2022-09-12T15:16:12.370Z,94803.31
2022-09-12T15:18:40.588Z,94805.81
2022-09-12T15:21:15.200Z,94801.41
2022-09-12T15:23:46.994Z,94816.53
2022-09-12T15:26:17.284Z,94814.34
2022-09-12T15:28:45.718Z,94816.84
2022-09-12T15:31:22.986Z,94811.47
2022-09-12T15:33:51.449Z,94809.91
2022-09-12T15:36:23.760Z,94811.69
2022-09-12T15:38:52.142Z,94805.50
2022-09-12T15:41:22.385Z,94812.16
2022-09-12T15:43:51.579Z,94810.09
2022-09-12T15:46:20.415Z,94821.56
2022-09-12T15:48:48.761Z,94816.31
2022-09-12T15:51:19.195Z,94822.94
2022-09-12T15:53:49.800Z,94819.34
2022-09-12T15:56:19.389Z,94825.88
2022-09-12T15:59:01.196Z,94826.31
2022-09-12T16:01:30.402Z,94828.44
2022-09-12T16:03:58.997Z,94833.03
2022-09-12T16:06:27.985Z,94776.38
2022-09-12T16:08:57.708Z,94834.09
2022-09-12T16:11:28.707Z,94840.72
2022-09-12T16:13:58.442Z,94841.50
2022-09-12T16:16:26.839Z,94844.94
2022-09-12T16:18:55.196Z,94843.00
2022-09-12T16:21:24.490Z,94853.81
2022-09-12T16:23:53.064Z,94813.38
2022-09-12T16:26:22.747Z,94859.50
2022-09-12T16:28:56.251Z,94857.66
2022-09-12T16:31:24.673Z,94863.94
2022-09-12T16:33:53.109Z,94828.69
2022-09-12T16:36:22.608Z,94866.38
2022-09-12T16:38:52.557Z,94790.47
2022-09-12T16:41:24.760Z,94876.66
2022-09-12T16:43:53.674Z,94840.22
2022-09-12T16:46:24.433Z,94883.66
2022-09-12T16:48:54.584Z,94874.41
2022-09-12T16:51:26.069Z,94875.72
2022-09-12T16:53:55.619Z,94887.50
2022-09-12T16:56:25.928Z,94885.09
2022-09-12T16:58:54.434Z,94883.63
2022-09-12T17:01:24.356Z,94818.44
2022-09-12T17:03:54.682Z,94890.66
2022-09-12T17:06:23.179Z,94900.00
2022-09-12T17:08:53.834Z,94909.19
2022-09-12T17:11:26.585Z,94903.19
2022-09-12T17:14:05.845Z,94903.06
2022-09-12T17:16:35.983Z,94913.69
2022-09-12T17:19:04.572Z,94918.78
2022-09-12T17:21:32.978Z,94920.28
2022-09-12T17:24:01.743Z,94931.09
2022-09-12T17:26:31.721Z,94927.34
2022-09-12T17:29:00.137Z,94926.97
2022-09-12T17:31:29.179Z,94932.38
2022-09-12T17:33:59.183Z,94935.72
2022-09-12T17:36:28.141Z,94946.97
2022-09-12T17:38:56.661Z,94949.44
2022-09-12T17:41:27.964Z,94955.66
2022-09-12T17:43:59.403Z,94949.13
2022-09-12T17:46:35.071Z,94960.59
2022-09-12T17:49:06.181Z,94961.19
2022-09-12T17:51:34.601Z,94958.75
2022-09-12T17:54:05.655Z,94970.53
2022-09-12T17:56:35.509Z,94968.56
2022-09-12T17:59:07.044Z,94979.97
2022-09-12T18:01:52.881Z,94976.56
2022-09-12T18:04:21.524Z,94977.47
2022-09-12T18:06:50.266Z,94981.56
2022-09-12T18:09:20.891Z,94986.88
2022-09-12T18:11:50.113Z,94975.53
2022-09-12T18:14:20.564Z,94979.81
2022-09-12T18:16:49.557Z,94983.38
2022-09-12T18:19:18.264Z,94983.69
2022-09-12T18:21:46.912Z,94982.75
2022-09-12T18:24:15.489Z,94989.03
2022-09-12T18:26:44.527Z,94993.31
2022-09-12T18:29:16.854Z,94993.34
2022-09-12T18:31:47.359Z,94984.94
2022-09-12T18:34:16.287Z,94972.03
2022-09-12T18:36:46.780Z,94991.00
2022-09-12T18:39:15.482Z,94999.59
2022-09-12T18:41:44.423Z,94997.41
2022-09-12T18:44:13.342Z,95000.44
2022-09-12T18:46:41.782Z,95002.34
2022-09-12T18:49:11.649Z,94995.16
2022-09-12T18:51:42.012Z,94999.16
2022-09-12T18:54:14.531Z,95007.66
2022-09-12T18:56:44.128Z,95016.47
2022-09-12T18:59:14.932Z,94938.44
2022-09-12T19:01:44.074Z,95017.84
2022-09-12T19:04:16.174Z,95022.03
2022-09-12T19:06:46.727Z,95012.06
2022-09-12T19:09:16.672Z,95010.09
2022-09-12T19:11:50.156Z,95007.28
2022-09-12T19:14:19.735Z,95018.72
2022-09-12T19:16:48.194Z,95013.34
2022-09-12T19:19:18.299Z,95009.13
2022-09-12T19:21:47.232Z,95008.31
2022-09-12T19:24:16.715Z,95010.06
2022-09-12T19:26:45.344Z,95010.38
2022-09-12T19:29:14.857Z,95017.91
2022-09-12T19:31:43.506Z,95012.13
2022-09-12T19:34:13.349Z,95014.09
2022-09-12T19:36:46.209Z,95032.63
2022-09-12T19:39:16.561Z,95024.69
2022-09-12T19:41:45.800Z,95028.78
2022-09-12T19:44:14.468Z,95021.63
2022-09-12T19:46:42.835Z,95018.56
2022-09-12T19:49:13.131Z,95017.75
2022-09-12T19:51:43.979Z,95024.47
2022-09-12T19:54:12.412Z,95017.28
2022-09-12T19:56:40.629Z,95010.88
2022-09-12T19:59:09.992Z,95021.56
2022-09-12T20:01:38.642Z,95024.47
2022-09-12T20:04:07.197Z,95022.47
2022-09-12T20:06:35.652Z,95017.38
2022-09-12T20:09:05.828Z,95020.88
2022-09-12T20:11:34.556Z,95022.59
2022-09-12T20:14:02.978Z,95027.34
2022-09-12T20:16:33.577Z,95027.66
2022-09-12T20:19:03.809Z,95025.88
2022-09-12T20:21:35.975Z,95029.44
2022-09-12T20:24:07.516Z,95008.69
2022-09-12T20:26:35.965Z,95032.16
2022-09-12T20:29:05.391Z,95024.81
2022-09-12T20:31:34.054Z,95011.00
2022-09-12T20:34:02.379Z,95033.84
2022-09-12T20:36:30.705Z,95030.91
2022-09-12T20:39:01.424Z,95028.69
2022-09-12T20:41:32.546Z,95013.84
2022-09-12T20:44:01.027Z,95040.59
2022-09-12T20:46:30.105Z,95042.75
2022-09-12T20:48:59.053Z,95042.63
2022-09-12T20:51:29.766Z,95045.72
2022-09-12T20:53:59.727Z,95054.47
2022-09-12T20:56:31.644Z,95049.31
2022-09-12T20:59:00.538Z,95001.97
2022-09-12T21:01:30.361Z,95049.06
2022-09-12T21:03:58.868Z,95006.56
2022-09-12T21:06:27.268Z,95048.91
2022-09-12T21:08:58.808Z,95034.22
2022-09-12T21:11:27.277Z,95067.00
2022-09-12T21:13:57.304Z,95065.31
2022-09-12T21:16:25.883Z,95069.25
2022-09-12T21:18:55.853Z,95056.31
2022-09-12T21:21:24.580Z,95068.28
2022-09-12T21:23:55.325Z,95070.50
2022-09-12T21:26:23.635Z,95074.13
2022-09-12T21:28:51.955Z,95072.06
2022-09-12T21:31:21.677Z,95062.78
2022-09-12T21:33:50.044Z,95063.28
2022-09-12T21:36:18.943Z,95053.50
2022-09-12T21:38:47.152Z,95072.72
2022-09-12T21:41:16.955Z,95070.97
2022-09-12T21:43:45.486Z,95068.22
2022-09-12T21:46:14.012Z,95068.63
2022-09-12T21:48:44.321Z,95074.09
2022-09-12T21:51:12.590Z,95074.03
2022-09-12T21:53:40.822Z,95070.63
2022-09-12T21:56:10.300Z,95073.50
2022-09-12T21:58:39.408Z,95072.56
2022-09-12T22:01:09.733Z,94989.09
2022-09-12T22:03:38.038Z,95076.66
2022-09-12T22:06:08.258Z,95072.41
2022-09-12T22:08:38.856Z,95076.00
2022-09-12T22:11:09.801Z,95064.22
2022-09-12T22:13:39.371Z,94979.41
2022-09-12T22:16:08.253Z,95075.41
2022-09-12T22:18:38.191Z,95073.00
2022-09-12T22:21:09.928Z,95081.69
2022-09-12T22:23:55.671Z,95078.56
2022-09-12T22:26:24.448Z,95082.50
2022-09-12T22:28:53.336Z,95079.00
2022-09-12T22:31:21.877Z,95086.25
2022-09-12T22:33:50.906Z,95049.50
2022-09-12T22:36:20.575Z,95080.81
2022-09-12T22:38:49.065Z,95080.06
2022-09-12T22:41:17.404Z,95067.94
2022-09-12T22:43:45.718Z,95073.19
2022-09-12T22:46:14.300Z,95073.47
2022-09-12T22:48:42.914Z,94984.63
2022-09-12T22:51:11.176Z,95071.91
2022-09-12T22:53:40.923Z,95058.66
2022-09-12T22:56:10.352Z,95066.97
2022-09-12T22:58:38.900Z,95074.00
2022-09-12T23:01:08.154Z,95077.28
2022-09-12T23:03:37.187Z,95084.19
2022-09-12T23:06:06.161Z,95074.94
2022-09-12T23:08:36.403Z,95078.41
2022-09-12T23:11:09.428Z,95076.25
2022-09-12T23:13:39.132Z,95076.44
2022-09-12T23:16:09.216Z,95073.19
2022-09-12T23:18:38.202Z,95072.19
2022-09-12T23:21:08.348Z,95066.84
2022-09-12T23:23:37.095Z,95069.88
2022-09-12T23:26:09.092Z,95065.16
2022-09-12T23:28:38.768Z,95064.59
2022-09-12T23:31:09.902Z,95067.19
2022-09-12T23:33:38.352Z,95072.06
2022-09-12T23:36:12.839Z,95073.63
2022-09-12T23:38:42.013Z,95064.09
2022-09-12T23:41:12.587Z,95065.34
2022-09-12T23:43:40.971Z,95060.16
2022-09-12T23:46:09.365Z,95061.44
2022-09-12T23:48:37.765Z,95052.28
2022-09-12T23:51:06.532Z,95042.31
2022-09-12T23:53:35.799Z,95045.22
2022-09-12T23:56:05.392Z,95042.09
2022-09-12T23:58:35.159Z,95044.38
